sensor_id;sensor_type;location;lat;lon;timestamp;pressure;altitude;pressure_sealevel;temperature;humidity
51715;BME280;39115;59.332;18.034;2022-09-21T00:01:42;101848.88;;;7.90;63.46
51715;BME280;39115;59.332;18.034;2022-09-21T00:04:08;101848.88;;;7.90;63.62
51715;BME280;39115;59.332;18.034;2022-09-21T00:06:33;101847.16;;;7.89;63.57
51715;BME280;39115;59.332;18.034;2022-09-21T00:08:59;101853.50;;;7.87;63.54
51715;BME280;39115;59.332;18.034;2022-09-21T00:11:28;101854.53;;;7.84;63.63
51715;BME280;39115;59.332;18.034;2022-09-21T00:13:54;101852.09;;;7.81;63.43
51715;BME280;39115;59.332;18.034;2022-09-21T00:16:22;101851.38;;;7.78;63.48
51715;BME280;39115;59.332;18.034;2022-09-21T00:18:48;101853.28;;;7.75;63.50
51715;BME280;39115;59.332;18.034;2022-09-21T00:21:14;101857.72;;;7.75;63.75
51715;BME280;39115;59.332;18.034;2022-09-21T00:23:39;101861.41;;;7.72;63.70
51715;BME280;39115;59.332;18.034;2022-09-21T00:26:06;101867.66;;;7.71;63.80
51715;BME280;39115;59.332;18.034;2022-09-21T00:28:31;101871.22;;;7.70;63.86
51715;BME280;39115;59.332;18.034;2022-09-21T00:31:00;101858.19;;;7.67;63.54
51715;BME280;39115;59.332;18.034;2022-09-21T00:33:26;101859.97;;;7.67;63.82
51715;BME280;39115;59.332;18.034;2022-09-21T00:35:51;101868.00;;;7.65;63.79
51715;BME280;39115;59.332;18.034;2022-09-21T00:38:16;101870.75;;;7.64;63.47
51715;BME280;39115;59.332;18.034;2022-09-21T00:40:42;101871.78;;;7.61;63.88
51715;BME280;39115;59.332;18.034;2022-09-21T00:43:14;101870.06;;;7.60;63.84
51715;BME280;39115;59.332;18.034;2022-09-21T00:45:40;101872.78;;;7.58;63.65
51715;BME280;39115;59.332;18.034;2022-09-21T00:48:05;101877.34;;;7.56;64.03
51715;BME280;39115;59.332;18.034;2022-09-21T00:50:31;101871.28;;;7.54;63.89
51715;BME280;39115;59.332;18.034;2022-09-21T00:52:57;101871.19;;;7.56;63.85
51715;BME280;39115;59.332;18.034;2022-09-21T00:55:32;101866.75;;;7.56;63.71
51715;BME280;39115;59.332;18.034;2022-09-21T00:58:08;101872.06;;;7.56;63.77
51715;BME280;39115;59.332;18.034;2022-09-21T01:00:35;101869.41;;;7.56;63.94
51715;BME280;39115;59.332;18.034;2022-09-21T01:03:01;101875.53;;;7.57;63.96
51715;BME280;39115;59.332;18.034;2022-09-21T01:05:27;101869.31;;;7.58;63.72
51715;BME280;39115;59.332;18.034;2022-09-21T01:07:53;101873.56;;;7.60;63.72
51715;BME280;39115;59.332;18.034;2022-09-21T01:10:19;101876.22;;;7.60;63.72
51715;BME280;39115;59.332;18.034;2022-09-21T01:12:59;101866.56;;;7.59;63.56
51715;BME280;39115;59.332;18.034;2022-09-21T01:31:12;101889.16;;;7.51;63.90
51715;BME280;39115;59.332;18.034;2022-09-21T01:33:43;101883.94;;;7.49;63.49
51715;BME280;39115;59.332;18.034;2022-09-21T01:36:14;101894.59;;;7.48;63.98
51715;BME280;39115;59.332;18.034;2022-09-21T01:38:44;101892.16;;;7.44;63.97
51715;BME280;39115;59.332;18.034;2022-09-21T01:41:11;101888.72;;;7.42;63.72
51715;BME280;39115;59.332;18.034;2022-09-21T01:43:42;101893.25;;;7.40;63.69
51715;BME280;39115;59.332;18.034;2022-09-21T01:46:12;101888.97;;;7.38;63.88
51715;BME280;39115;59.332;18.034;2022-09-21T01:48:41;101885.47;;;7.37;64.04
51715;BME280;39115;59.332;18.034;2022-09-21T01:51:09;101894.38;;;7.36;63.91
51715;BME280;39115;59.332;18.034;2022-09-21T01:53:40;101898.72;;;7.37;63.69
51715;BME280;39115;59.332;18.034;2022-09-21T02:01:42;101898.88;;;7.34;63.96
51715;BME280;39115;59.332;18.034;2022-09-21T02:04:11;101912.22;;;7.33;64.05
51715;BME280;39115;59.332;18.034;2022-09-21T02:06:37;101898.09;;;7.32;64.25
51715;BME280;39115;59.332;18.034;2022-09-21T02:09:04;101896.34;;;7.33;63.84
51715;BME280;39115;59.332;18.034;2022-09-21T02:11:29;101895.41;;;7.34;63.93
51715;BME280;39115;59.332;18.034;2022-09-21T02:13:54;101908.53;;;7.35;64.32
51715;BME280;39115;59.332;18.034;2022-09-21T02:21:33;101904.78;;;7.39;63.85
51715;BME280;39115;59.332;18.034;2022-09-21T02:26:49;101905.44;;;7.43;63.66
51715;BME280;39115;59.332;18.034;2022-09-21T02:32:08;101913.16;;;7.48;63.81
51715;BME280;39115;59.332;18.034;2022-09-21T02:34:48;101915.06;;;7.46;64.08
51715;BME280;39115;59.332;18.034;2022-09-21T02:37:27;101916.66;;;7.48;64.02
51715;BME280;39115;59.332;18.034;2022-09-21T02:39:58;101921.88;;;7.50;64.16
51715;BME280;39115;59.332;18.034;2022-09-21T02:42:27;101925.41;;;7.50;64.07
51715;BME280;39115;59.332;18.034;2022-09-21T02:44:55;101924.44;;;7.51;64.09
51715;BME280;39115;59.332;18.034;2022-09-21T02:47:27;101915.53;;;7.52;63.91
51715;BME280;39115;59.332;18.034;2022-09-21T02:49:57;101922.56;;;7.53;64.01
51715;BME280;39115;59.332;18.034;2022-09-21T02:52:25;101918.88;;;7.56;63.79
51715;BME280;39115;59.332;18.034;2022-09-21T02:54:52;101912.63;;;7.57;64.08
51715;BME280;39115;59.332;18.034;2022-09-21T02:57:18;101925.72;;;7.60;64.05
51715;BME280;39115;59.332;18.034;2022-09-21T02:59:44;101930.78;;;7.65;63.92
51715;BME280;39115;59.332;18.034;2022-09-21T03:02:10;101930.56;;;7.68;63.94
51715;BME280;39115;59.332;18.034;2022-09-21T03:04:40;101923.50;;;7.68;64.12
51715;BME280;39115;59.332;18.034;2022-09-21T03:07:06;101920.75;;;7.70;63.68
51715;BME280;39115;59.332;18.034;2022-09-21T03:09:31;101926.06;;;7.70;63.69
51715;BME280;39115;59.332;18.034;2022-09-21T03:11:57;101932.97;;;7.72;64.03
51715;BME280;39115;59.332;18.034;2022-09-21T03:14:22;101924.06;;;7.73;63.91
51715;BME280;39115;59.332;18.034;2022-09-21T03:16:47;101924.84;;;7.75;64.13
51715;BME280;39115;59.332;18.034;2022-09-21T03:19:12;101932.72;;;7.77;63.80
51715;BME280;39115;59.332;18.034;2022-09-21T03:21:39;101930.75;;;7.81;63.74
51715;BME280;39115;59.332;18.034;2022-09-21T03:24:04;101941.25;;;7.82;64.04
51715;BME280;39115;59.332;18.034;2022-09-21T03:26:29;101938.59;;;7.82;63.74
51715;BME280;39115;59.332;18.034;2022-09-21T03:28:55;101941.19;;;7.84;63.98
51715;BME280;39115;59.332;18.034;2022-09-21T03:31:20;101937.50;;;7.86;63.82
51715;BME280;39115;59.332;18.034;2022-09-21T03:33:46;101941.75;;;7.89;64.04
51715;BME280;39115;59.332;18.034;2022-09-21T03:36:11;101945.25;;;7.89;63.73
51715;BME280;39115;59.332;18.034;2022-09-21T03:38:37;101939.88;;;7.91;63.82
51715;BME280;39115;59.332;18.034;2022-09-21T03:41:02;101937.13;;;7.93;63.68
51715;BME280;39115;59.332;18.034;2022-09-21T03:43:27;101952.94;;;7.94;63.55
51715;BME280;39115;59.332;18.034;2022-09-21T03:45:53;101953.81;;;7.95;63.58
51715;BME280;39115;59.332;18.034;2022-09-21T03:48:18;101942.34;;;7.94;63.55
51715;BME280;39115;59.332;18.034;2022-09-21T03:50:43;101946.69;;;7.95;63.76
51715;BME280;39115;59.332;18.034;2022-09-21T03:53:09;101950.13;;;7.97;63.75
51715;BME280;39115;59.332;18.034;2022-09-21T03:55:34;101946.44;;;8.00;63.81
51715;BME280;39115;59.332;18.034;2022-09-21T03:58:00;101946.34;;;8.01;63.71
51715;BME280;39115;59.332;18.034;2022-09-21T04:00:26;101941.91;;;8.02;63.69
51715;BME280;39115;59.332;18.034;2022-09-21T04:02:52;101947.88;;;8.05;63.64
51715;BME280;39115;59.332;18.034;2022-09-21T04:05:17;101940.78;;;8.06;63.67
51715;BME280;39115;59.332;18.034;2022-09-21T04:07:42;101939.00;;;8.06;63.78
51715;BME280;39115;59.332;18.034;2022-09-21T04:10:10;101946.00;;;8.07;63.50
51715;BME280;39115;59.332;18.034;2022-09-21T04:12:39;101938.78;;;8.10;63.47
51715;BME280;39115;59.332;18.034;2022-09-21T04:15:08;101949.34;;;8.11;63.82
51715;BME280;39115;59.332;18.034;2022-09-21T04:17:35;101944.03;;;8.11;63.58
51715;BME280;39115;59.332;18.034;2022-09-21T04:20:00;101946.59;;;8.13;63.60
51715;BME280;39115;59.332;18.034;2022-09-21T04:22:26;101947.38;;;8.15;63.62
51715;BME280;39115;59.332;18.034;2022-09-21T04:24:51;101937.59;;;8.15;63.94
51715;BME280;39115;59.332;18.034;2022-09-21T04:27:16;101939.41;;;8.15;63.81
51715;BME280;39115;59.332;18.034;2022-09-21T04:29:42;101935.81;;;8.16;63.54
51715;BME280;39115;59.332;18.034;2022-09-21T04:32:07;101934.94;;;8.15;63.60
51715;BME280;39115;59.332;18.034;2022-09-21T04:34:34;101931.34;;;8.16;63.51
51715;BME280;39115;59.332;18.034;2022-09-21T04:37:00;101936.66;;;8.16;63.35
51715;BME280;39115;59.332;18.034;2022-09-21T04:39:25;101937.50;;;8.17;63.45
51715;BME280;39115;59.332;18.034;2022-09-21T04:41:51;101933.16;;;8.16;63.63
51715;BME280;39115;59.332;18.034;2022-09-21T04:44:16;101937.59;;;8.15;63.80
51715;BME280;39115;59.332;18.034;2022-09-21T04:46:44;101946.41;;;8.16;63.56
51715;BME280;39115;59.332;18.034;2022-09-21T04:49:10;101943.78;;;8.16;63.77
51715;BME280;39115;59.332;18.034;2022-09-21T04:51:35;101941.13;;;8.16;63.68
51715;BME280;39115;59.332;18.034;2022-09-21T04:54:01;101940.25;;;8.15;63.65
51715;BME280;39115;59.332;18.034;2022-09-21T04:56:26;101936.66;;;8.16;63.65
51715;BME280;39115;59.332;18.034;2022-09-21T04:58:51;101942.78;;;8.17;63.55
51715;BME280;39115;59.332;18.034;2022-09-21T05:01:17;101948.97;;;8.17;63.56
51715;BME280;39115;59.332;18.034;2022-09-21T05:03:42;101949.75;;;8.19;63.69
51715;BME280;39115;59.332;18.034;2022-09-21T05:06:07;101953.16;;;8.21;63.66
51715;BME280;39115;59.332;18.034;2022-09-21T05:08:35;101950.41;;;8.23;63.79
51715;BME280;39115;59.332;18.034;2022-09-21T05:11:19;101951.25;;;8.23;63.63
51715;BME280;39115;59.332;18.034;2022-09-21T05:13:45;101952.03;;;8.26;63.61
51715;BME280;39115;59.332;18.034;2022-09-21T05:16:10;101951.84;;;8.29;63.70
51715;BME280;39115;59.332;18.034;2022-09-21T05:18:36;101946.47;;;8.30;63.71
51715;BME280;39115;59.332;18.034;2022-09-21T05:21:02;101951.56;;;8.33;63.36
51715;BME280;39115;59.332;18.034;2022-09-21T05:23:28;101958.47;;;8.36;63.55
51715;BME280;39115;59.332;18.034;2022-09-21T05:25:54;101958.31;;;8.39;63.71
51715;BME280;39115;59.332;18.034;2022-09-21T05:28:20;101951.91;;;8.43;63.16
51715;BME280;39115;59.332;18.034;2022-09-21T05:30:53;101954.34;;;8.46;63.48
51715;BME280;39115;59.332;18.034;2022-09-21T05:33:21;101957.72;;;8.50;63.59
51715;BME280;39115;59.332;18.034;2022-09-21T05:38:33;101966.16;;;8.57;63.35
51715;BME280;39115;59.332;18.034;2022-09-21T05:40:59;101957.06;;;8.61;63.40
51715;BME280;39115;59.332;18.034;2022-09-21T05:43:25;101964.69;;;8.67;63.15
51715;BME280;39115;59.332;18.034;2022-09-21T05:45:51;101966.19;;;8.71;63.13
51715;BME280;39115;59.332;18.034;2022-09-21T05:48:22;101971.13;;;8.77;63.23
51715;BME280;39115;59.332;18.034;2022-09-21T05:51:03;101976.06;;;8.83;63.08
51715;BME280;39115;59.332;18.034;2022-09-21T05:53:44;101971.41;;;8.87;63.41
51715;BME280;39115;59.332;18.034;2022-09-21T05:56:33;101973.03;;;8.90;63.02
51715;BME280;39115;59.332;18.034;2022-09-21T06:01:58;101984.50;;;8.90;63.14
51715;BME280;39115;59.332;18.034;2022-09-21T06:04:26;101992.47;;;8.90;63.37
51715;BME280;39115;59.332;18.034;2022-09-21T06:06:52;101981.97;;;8.89;63.32
51715;BME280;39115;59.332;18.034;2022-09-21T06:09:17;101992.56;;;8.89;63.64
51715;BME280;39115;59.332;18.034;2022-09-21T06:11:44;101989.81;;;8.90;63.40
51715;BME280;39115;59.332;18.034;2022-09-21T06:14:10;101992.19;;;8.95;63.60
51715;BME280;39115;59.332;18.034;2022-09-21T06:16:36;101992.03;;;8.98;63.23
51715;BME280;39115;59.332;18.034;2022-09-21T06:19:01;101988.22;;;9.02;63.43
51715;BME280;39115;59.332;18.034;2022-09-21T06:21:26;101998.56;;;9.07;63.27
51715;BME280;39115;59.332;18.034;2022-09-21T06:23:52;101999.13;;;9.12;63.58
51715;BME280;39115;59.332;18.034;2022-09-21T06:26:17;101997.13;;;9.15;63.46
51715;BME280;39115;59.332;18.034;2022-09-21T06:28:42;101988.09;;;9.18;63.45
51715;BME280;39115;59.332;18.034;2022-09-21T06:31:08;101991.16;;;9.26;63.40
51715;BME280;39115;59.332;18.034;2022-09-21T06:33:33;101993.34;;;9.34;62.94
51715;BME280;39115;59.332;18.034;2022-09-21T06:35:59;101991.06;;;9.42;63.07
51715;BME280;39115;59.332;18.034;2022-09-21T06:38:25;101989.72;;;9.49;63.03
51715;BME280;39115;59.332;18.034;2022-09-21T06:40:51;101992.84;;;9.56;63.24
51715;BME280;39115;59.332;18.034;2022-09-21T06:43:17;101991.56;;;9.62;63.06
51715;BME280;39115;59.332;18.034;2022-09-21T06:45:43;101994.59;;;9.70;63.37
51715;BME280;39115;59.332;18.034;2022-09-21T06:48:08;102002.09;;;9.78;62.66
51715;BME280;39115;59.332;18.034;2022-09-21T06:50:34;102008.63;;;9.87;62.85
51715;BME280;39115;59.332;18.034;2022-09-21T06:52:59;102004.50;;;9.95;62.46
51715;BME280;39115;59.332;18.034;2022-09-21T06:55:25;102004.97;;;10.02;62.81
51715;BME280;39115;59.332;18.034;2022-09-21T06:57:50;102007.22;;;10.08;62.65
51715;BME280;39115;59.332;18.034;2022-09-21T07:00:15;102006.72;;;10.16;62.97
51715;BME280;39115;59.332;18.034;2022-09-21T07:02:41;102008.84;;;10.24;63.02
51715;BME280;39115;59.332;18.034;2022-09-21T07:05:07;102007.50;;;10.31;62.95
51715;BME280;39115;59.332;18.034;2022-09-21T07:07:32;102005.13;;;10.41;62.40
51715;BME280;39115;59.332;18.034;2022-09-21T07:10:00;102008.97;;;10.50;62.99
51715;BME280;39115;59.332;18.034;2022-09-21T07:12:28;102003.97;;;10.58;62.70
51715;BME280;39115;59.332;18.034;2022-09-21T07:14:58;102006.09;;;10.66;62.47
51715;BME280;39115;59.332;18.034;2022-09-21T07:17:23;101997.59;;;10.73;62.10
51715;BME280;39115;59.332;18.034;2022-09-21T07:19:49;102000.59;;;10.82;62.20
51715;BME280;39115;59.332;18.034;2022-09-21T07:22:14;101997.31;;;10.91;62.11
51715;BME280;39115;59.332;18.034;2022-09-21T07:24:39;101996.63;;;11.00;62.64
51715;BME280;39115;59.332;18.034;2022-09-21T07:27:05;101999.53;;;11.10;62.00
51715;BME280;39115;59.332;18.034;2022-09-21T07:29:30;101991.75;;;11.20;62.20
51715;BME280;39115;59.332;18.034;2022-09-21T07:31:56;102000.03;;;11.28;61.83
51715;BME280;39115;59.332;18.034;2022-09-21T07:34:21;101997.69;;;11.36;62.28
51715;BME280;39115;59.332;18.034;2022-09-21T07:36:46;102002.38;;;11.46;61.69
51715;BME280;39115;59.332;18.034;2022-09-21T07:39:12;101994.69;;;11.54;62.16
51715;BME280;39115;59.332;18.034;2022-09-21T07:41:37;101994.97;;;11.62;61.74
51715;BME280;39115;59.332;18.034;2022-09-21T07:44:03;101998.78;;;11.71;61.82
51715;BME280;39115;59.332;18.034;2022-09-21T07:46:28;101998.19;;;11.79;61.69
51715;BME280;39115;59.332;18.034;2022-09-21T07:48:54;102004.56;;;11.89;61.59
51715;BME280;39115;59.332;18.034;2022-09-21T07:51:19;102007.44;;;11.99;61.73
51715;BME280;39115;59.332;18.034;2022-09-21T07:53:45;102003.97;;;12.10;61.66
51715;BME280;39115;59.332;18.034;2022-09-21T07:56:11;102008.63;;;12.19;61.43
51715;BME280;39115;59.332;18.034;2022-09-21T07:58:37;102008.78;;;12.29;61.34
51715;BME280;39115;59.332;18.034;2022-09-21T08:01:22;102008.34;;;12.35;61.49
51715;BME280;39115;59.332;18.034;2022-09-21T08:03:51;102005.09;;;12.43;61.61
51715;BME280;39115;59.332;18.034;2022-09-21T08:06:17;102008.03;;;12.51;61.40
51715;BME280;39115;59.332;18.034;2022-09-21T08:08:43;102007.34;;;12.60;61.49
51715;BME280;39115;59.332;18.034;2022-09-21T08:11:08;102010.16;;;12.70;61.25
51715;BME280;39115;59.332;18.034;2022-09-21T08:13:35;102006.03;;;12.77;61.11
51715;BME280;39115;59.332;18.034;2022-09-21T08:16:01;102004.47;;;12.86;61.06
51715;BME280;39115;59.332;18.034;2022-09-21T08:18:27;102003.88;;;12.94;60.99
51715;BME280;39115;59.332;18.034;2022-09-21T08:20:53;102000.63;;;13.02;61.08
51715;BME280;39115;59.332;18.034;2022-09-21T08:23:18;102001.69;;;13.10;60.94
51715;BME280;39115;59.332;18.034;2022-09-21T08:25:44;102001.81;;;13.20;60.92
51715;BME280;39115;59.332;18.034;2022-09-21T08:28:09;102001.09;;;13.29;60.85
51715;BME280;39115;59.332;18.034;2022-09-21T08:30:35;102009.50;;;13.36;60.70
51715;BME280;39115;59.332;18.034;2022-09-21T08:33:00;102003.41;;;13.46;60.71
51715;BME280;39115;59.332;18.034;2022-09-21T08:35:26;101995.53;;;13.55;60.76
51715;BME280;39115;59.332;18.034;2022-09-21T08:37:52;102007.16;;;13.66;60.70
51715;BME280;39115;59.332;18.034;2022-09-21T08:40:17;102007.38;;;13.74;60.57
51715;BME280;39115;59.332;18.034;2022-09-21T08:42:54;102003.13;;;13.83;60.49
51715;BME280;39115;59.332;18.034;2022-09-21T08:45:30;102003.22;;;13.93;60.48
51715;BME280;39115;59.332;18.034;2022-09-21T08:47:57;102004.16;;;14.03;60.52
51715;BME280;39115;59.332;18.034;2022-09-21T08:53:14;102006.28;;;14.20;60.59
51715;BME280;39115;59.332;18.034;2022-09-21T08:55:42;102001.84;;;14.31;60.58
51715;BME280;39115;59.332;18.034;2022-09-21T08:58:18;101999.53;;;14.37;60.41
51715;BME280;39115;59.332;18.034;2022-09-21T09:00:45;102006.31;;;14.42;60.21
51715;BME280;39115;59.332;18.034;2022-09-21T09:05:54;102010.03;;;14.50;60.27
51715;BME280;39115;59.332;18.034;2022-09-21T09:11:15;102008.28;;;14.61;60.12
51715;BME280;39115;59.332;18.034;2022-09-21T09:21:35;102011.47;;;14.97;59.99
51715;BME280;39115;59.332;18.034;2022-09-21T09:24:03;102014.34;;;15.05;60.18
51715;BME280;39115;59.332;18.034;2022-09-21T09:29:27;102011.91;;;15.23;60.15
51715;BME280;39115;59.332;18.034;2022-09-21T09:31:55;102013.66;;;15.34;59.87
51715;BME280;39115;59.332;18.034;2022-09-21T09:36:59;102006.06;;;15.49;60.02
51715;BME280;39115;59.332;18.034;2022-09-21T09:39:27;102016.13;;;15.57;59.66
51715;BME280;39115;59.332;18.034;2022-09-21T09:49:59;102015.78;;;15.91;59.66
51715;BME280;39115;59.332;18.034;2022-09-21T09:52:27;102026.41;;;16.02;59.64
51715;BME280;39115;59.332;18.034;2022-09-21T09:54:52;102027.56;;;16.09;59.54
51715;BME280;39115;59.332;18.034;2022-09-21T09:57:21;102032.09;;;16.19;59.24
51715;BME280;39115;59.332;18.034;2022-09-21T09:59:49;102016.53;;;16.22;59.35
51715;BME280;39115;59.332;18.034;2022-09-21T10:02:20;102022.19;;;16.29;59.41
51715;BME280;39115;59.332;18.034;2022-09-21T10:05:02;102023.59;;;16.33;59.51
51715;BME280;39115;59.332;18.034;2022-09-21T10:09:58;102019.50;;;16.39;59.41
51715;BME280;39115;59.332;18.034;2022-09-21T10:12:24;102027.97;;;16.44;59.46
51715;BME280;39115;59.332;18.034;2022-09-21T10:14:53;102023.72;;;16.51;59.40
51715;BME280;39115;59.332;18.034;2022-09-21T10:17:20;102017.94;;;16.56;59.21
51715;BME280;39115;59.332;18.034;2022-09-21T10:19:47;102018.50;;;16.59;59.31
51715;BME280;39115;59.332;18.034;2022-09-21T10:22:16;102014.38;;;16.65;59.30
51715;BME280;39115;59.332;18.034;2022-09-21T10:24:48;102019.03;;;16.73;59.20
51715;BME280;39115;59.332;18.034;2022-09-21T10:27:15;102020.28;;;16.79;59.38
51715;BME280;39115;59.332;18.034;2022-09-21T10:29:44;102021.72;;;16.83;59.26
51715;BME280;39115;59.332;18.034;2022-09-21T10:32:31;102026.06;;;16.84;59.14
51715;BME280;39115;59.332;18.034;2022-09-21T10:37:28;102020.44;;;16.77;59.46
51715;BME280;39115;59.332;18.034;2022-09-21T10:39:54;102012.53;;;16.75;59.44
51715;BME280;39115;59.332;18.034;2022-09-21T10:42:19;102019.03;;;16.73;59.27
51715;BME280;39115;59.332;18.034;2022-09-21T10:44:49;102015.94;;;16.68;59.24
51715;BME280;39115;59.332;18.034;2022-09-21T10:47:21;102016.38;;;16.63;59.36
51715;BME280;39115;59.332;18.034;2022-09-21T10:49:54;102016.38;;;16.63;59.41
51715;BME280;39115;59.332;18.034;2022-09-21T10:52:21;102007.59;;;16.61;59.31
51715;BME280;39115;59.332;18.034;2022-09-21T10:54:48;102022.59;;;16.54;59.56
51715;BME280;39115;59.332;18.034;2022-09-21T10:57:16;102022.44;;;16.65;59.27
51715;BME280;39115;59.332;18.034;2022-09-21T10:59:42;102014.22;;;16.67;59.08
51715;BME280;39115;59.332;18.034;2022-09-21T11:02:54;102015.81;;;16.50;59.61
51715;BME280;39115;59.332;18.034;2022-09-21T11:05:00;102014.41;;;16.26;59.80
51715;BME280;39115;59.332;18.034;2022-09-21T11:10:05;102015.97;;;16.38;59.30
51715;BME280;39115;59.332;18.034;2022-09-21T11:15:11;102014.25;;;16.57;59.24
51715;BME280;39115;59.332;18.034;2022-09-21T11:27:59;102014.25;;;16.37;59.25
51715;BME280;39115;59.332;18.034;2022-09-21T11:30:29;102012.69;;;16.44;59.08
51715;BME280;39115;59.332;18.034;2022-09-21T11:49:05;101995.78;;;17.01;58.64
51715;BME280;39115;59.332;18.034;2022-09-21T11:56:49;102000.72;;;17.06;58.83
51715;BME280;39115;59.332;18.034;2022-09-21T12:04:35;102006.59;;;17.29;58.42
51715;BME280;39115;59.332;18.034;2022-09-21T12:12:22;102009.78;;;17.43;58.51
51715;BME280;39115;59.332;18.034;2022-09-21T12:14:55;102001.53;;;17.44;58.64
51715;BME280;39115;59.332;18.034;2022-09-21T12:17:37;102003.88;;;17.57;58.37
51715;BME280;39115;59.332;18.034;2022-09-21T12:22:44;102000.75;;;17.80;58.23
51715;BME280;39115;59.332;18.034;2022-09-21T12:25:15;102005.00;;;17.82;58.30
51715;BME280;39115;59.332;18.034;2022-09-21T12:30:20;102000.13;;;17.96;58.06
51715;BME280;39115;59.332;18.034;2022-09-21T12:35:39;102000.75;;;18.08;58.00
51715;BME280;39115;59.332;18.034;2022-09-21T12:40:38;101995.34;;;18.26;57.89
51715;BME280;39115;59.332;18.034;2022-09-21T12:43:50;102004.88;;;18.38;57.97
51715;BME280;39115;59.332;18.034;2022-09-21T12:45:57;101999.91;;;18.52;57.92
51715;BME280;39115;59.332;18.034;2022-09-21T12:48:32;102001.50;;;18.62;57.64
51715;BME280;39115;59.332;18.034;2022-09-21T12:51:00;102003.13;;;18.73;57.58
51715;BME280;39115;59.332;18.034;2022-09-21T12:53:27;102003.03;;;18.83;57.63
51715;BME280;39115;59.332;18.034;2022-09-21T12:55:55;102005.47;;;18.94;57.65
51715;BME280;39115;59.332;18.034;2022-09-21T13:06:14;102002.09;;;18.74;58.22
51715;BME280;39115;59.332;18.034;2022-09-21T13:08:46;102007.59;;;18.64;58.06
51715;BME280;39115;59.332;18.034;2022-09-21T13:11:12;102000.44;;;18.55;58.09
51715;BME280;39115;59.332;18.034;2022-09-21T13:16:28;101996.75;;;18.56;58.08
51715;BME280;39115;59.332;18.034;2022-09-21T13:18:58;102001.47;;;18.54;58.01
51715;BME280;39115;59.332;18.034;2022-09-21T13:21:25;102004.03;;;18.38;58.14
51715;BME280;39115;59.332;18.034;2022-09-21T13:26:27;102003.31;;;18.54;57.89
51715;BME280;39115;59.332;18.034;2022-09-21T13:36:41;102000.63;;;18.80;57.66
51715;BME280;39115;59.332;18.034;2022-09-21T13:41:32;102003.63;;;18.95;57.57
51715;BME280;39115;59.332;18.034;2022-09-21T13:52:18;102001.47;;;18.99;57.48
51715;BME280;39115;59.332;18.034;2022-09-21T13:54:25;102007.84;;;18.98;57.74
51715;BME280;39115;59.332;18.034;2022-09-21T13:59:30;101998.25;;;18.51;58.13
51715;BME280;39115;59.332;18.034;2022-09-21T14:01:57;101993.97;;;18.22;58.15
51715;BME280;39115;59.332;18.034;2022-09-21T14:04:26;101998.81;;;18.18;58.02
51715;BME280;39115;59.332;18.034;2022-09-21T14:06:53;102000.88;;;18.24;57.90
51715;BME280;39115;59.332;18.034;2022-09-21T14:09:24;102005.03;;;18.37;57.53
51715;BME280;39115;59.332;18.034;2022-09-21T14:11:58;101996.16;;;18.44;57.39
51715;BME280;39115;59.332;18.034;2022-09-21T14:14:36;101996.41;;;18.51;57.35
51715;BME280;39115;59.332;18.034;2022-09-21T14:17:03;102001.22;;;18.65;57.43
51715;BME280;39115;59.332;18.034;2022-09-21T14:24:36;101998.72;;;19.25;56.95
51715;BME280;39115;59.332;18.034;2022-09-21T14:32:24;101993.19;;;19.86;56.45
51715;BME280;39115;59.332;18.034;2022-09-21T14:34:52;101994.94;;;20.20;56.34
51715;BME280;39115;59.332;18.034;2022-09-21T14:37:29;101995.75;;;20.62;56.33
51715;BME280;39115;59.332;18.034;2022-09-21T14:39:55;101996.28;;;21.22;56.41
51715;BME280;39115;59.332;18.034;2022-09-21T14:42:25;101989.47;;;21.97;55.98
51715;BME280;39115;59.332;18.034;2022-09-21T14:44:52;101987.84;;;22.87;55.83
51715;BME280;39115;59.332;18.034;2022-09-21T14:50:24;101989.03;;;25.10;54.06
51715;BME280;39115;59.332;18.034;2022-09-21T15:00:24;101988.66;;;29.44;50.29
51715;BME280;39115;59.332;18.034;2022-09-21T15:05:33;101990.28;;;31.25;48.67
51715;BME280;39115;59.332;18.034;2022-09-21T15:11:08;101981.81;;;33.19;47.11
51715;BME280;39115;59.332;18.034;2022-09-21T15:13:50;101991.66;;;34.19;46.15
51715;BME280;39115;59.332;18.034;2022-09-21T15:21:45;101983.47;;;36.39;43.57
51715;BME280;39115;59.332;18.034;2022-09-21T15:24:18;101985.28;;;36.85;43.26
51715;BME280;39115;59.332;18.034;2022-09-21T15:26:44;101983.97;;;37.32;42.79
51715;BME280;39115;59.332;18.034;2022-09-21T15:29:24;101982.69;;;36.07;43.97
51715;BME280;39115;59.332;18.034;2022-09-21T15:31:50;101987.28;;;34.66;46.44
51715;BME280;39115;59.332;18.034;2022-09-21T15:34:16;102000.00;;;35.25;45.42
51715;BME280;39115;59.332;18.034;2022-09-21T15:36:42;102000.66;;;35.79;44.44
51715;BME280;39115;59.332;18.034;2022-09-21T15:44:33;101995.69;;;36.43;43.82
51715;BME280;39115;59.332;18.034;2022-09-21T15:47:00;101991.78;;;36.39;43.55
51715;BME280;39115;59.332;18.034;2022-09-21T15:49:27;101992.91;;;36.22;44.12
51715;BME280;39115;59.332;18.034;2022-09-21T15:54:41;101994.31;;;35.68;44.54
51715;BME280;39115;59.332;18.034;2022-09-21T15:57:22;101995.03;;;35.38;45.07
51715;BME280;39115;59.332;18.034;2022-09-21T15:59:50;101994.09;;;35.01;45.25
51715;BME280;39115;59.332;18.034;2022-09-21T16:02:19;102002.47;;;34.63;45.62
51715;BME280;39115;59.332;18.034;2022-09-21T16:04:45;102000.19;;;34.17;45.93
51715;BME280;39115;59.332;18.034;2022-09-21T16:07:35;102002.53;;;33.71;46.44
51715;BME280;39115;59.332;18.034;2022-09-21T16:10:01;101995.47;;;33.31;47.14
51715;BME280;39115;59.332;18.034;2022-09-21T16:14:59;102004.75;;;32.24;47.93
51715;BME280;39115;59.332;18.034;2022-09-21T16:17:28;102004.22;;;31.64;48.48